Terminal Aerodrome Forecast
Issued by NWS

Home | Current Version | Previous Version | Graphics & Text | Print | Product List | Glossary On
Versions: 1 2 3 4 5 6 7 8 9 10 11 12 13 14 15 16 17 18 19 20 21 22
313
FTUS41 KCLE 010526
TAFFDY
TAF
KFDY 010526Z 0106/0206 07006KT 5SM BR OVC006
      TEMPO 0106/0108 -SHRA
     FM010800 VRB03KT 4SM -DZ BR OVC006
     FM011500 33005KT P6SM OVC007
     FM011700 36006KT P6SM OVC015
     FM020300 05010KT 4SM -RA BR OVC007=

USA.gov is the U.S. government's official web portal to all federal, state and local government web resources and services.